Time;durP1;ratioP1;P1;durP2;ratioP2;P2;SDS_P1;SDS_P2;PMS_P1;PMS_P2;Temp;Humidity;BMP_temperature;BMP_pressure;BME280_temperature;BME280_humidity;BME280_pressure;Samples;Min_cycle;Max_cycle;Signal;HPM_P1;HPM_P2
2023/05/12 00:02:08;;;;;;;0.45;0.25;;;10.00;99.90;;;;;;5036328;28;20039;-75
2023/05/12 00:04:35;;;;;;;2.60;0.40;;;10.10;99.90;;;;;;5034119;28;20068;-75
2023/05/12 00:07:00;;;;;;;0.50;0.20;;;10.00;99.90;;;;;;5043297;28;20082;-75
2023/05/12 00:09:26;;;;;;;0.43;0.10;;;10.10;99.90;;;;;;5039790;28;20387;-75
2023/05/12 00:11:52;;;;;;;0.77;0.50;;;10.00;99.90;;;;;;5036063;28;20063;-75
2023/05/12 00:14:18;;;;;;;0.47;0.45;;;10.00;99.90;;;;;;5043994;28;20021;-75
2023/05/12 00:16:46;;;;;;;0.85;0.30;;;9.80;99.90;;;;;;5034125;28;20182;-75
2023/05/12 00:19:12;;;;;;;0.40;0.30;;;9.80;99.90;;;;;;5029201;28;20029;-75
2023/05/12 00:21:37;;;;;;;0.20;0.13;;;10.00;99.90;;;;;;5035060;28;20537;-74
2023/05/12 00:24:03;;;;;;;2.00;0.30;;;9.90;99.90;;;;;;5040011;28;25559;-74
2023/05/12 00:26:29;;;;;;;0.55;0.30;;;9.90;99.90;;;;;;5034627;28;20050;-75
2023/05/12 00:28:54;;;;;;;0.73;0.30;;;9.80;99.90;;;;;;5036672;28;20557;-75
2023/05/12 00:31:20;;;;;;;2.15;0.20;;;9.80;99.90;;;;;;5038376;28;20036;-75
2023/05/12 00:33:46;;;;;;;0.60;0.40;;;9.80;99.90;;;;;;5037192;28;20400;-74
2023/05/12 00:36:11;;;;;;;1.23;0.40;;;9.90;99.90;;;;;;5032188;28;20056;-75
2023/05/12 00:38:37;;;;;;;2.10;0.45;;;10.00;99.90;;;;;;5036762;28;20060;-74
2023/05/12 00:41:03;;;;;;;1.80;0.40;;;9.80;99.90;;;;;;5038343;28;20376;-74
2023/05/12 00:43:30;;;;;;;0.68;0.30;;;9.90;99.90;;;;;;5035366;28;20437;-75
2023/05/12 00:45:55;;;;;;;1.00;0.35;;;9.80;99.90;;;;;;5044121;28;20060;-75
2023/05/12 00:48:21;;;;;;;0.32;0.20;;;9.80;99.90;;;;;;5039870;28;20022;-74
2023/05/12 00:50:47;;;;;;;0.80;0.40;;;9.80;99.90;;;;;;5037375;28;20071;-74
2023/05/12 00:53:13;;;;;;;1.02;0.40;;;9.70;99.90;;;;;;5038210;28;20048;-74
2023/05/12 00:55:39;;;;;;;1.50;0.47;;;9.70;99.90;;;;;;5039361;28;20025;-75
2023/05/12 00:58:04;;;;;;;1.02;0.35;;;9.80;99.90;;;;;;5038106;28;20064;-75
2023/05/12 01:00:30;;;;;;;1.55;0.38;;;9.80;99.90;;;;;;5035998;28;20071;-76
2023/05/12 01:02:57;;;;;;;0.77;0.40;;;9.80;99.90;;;;;;5044613;28;20028;-75
2023/05/12 01:05:41;;;;;;;3.05;0.50;;;9.90;99.90;;;;;;5035134;28;20029;-75
2023/05/12 01:08:08;;;;;;;0.50;0.30;;;9.90;99.90;;;;;;5034896;28;20021;-75
2023/05/12 01:10:34;;;;;;;1.55;0.77;;;9.90;99.90;;;;;;5038704;28;20467;-75
2023/05/12 01:13:00;;;;;;;0.95;0.73;;;9.80;99.90;;;;;;5043705;28;20489;-74
2023/05/12 01:15:26;;;;;;;0.88;0.22;;;9.80;99.90;;;;;;5035030;28;20037;-75
2023/05/12 01:17:58;;;;;;;3.08;1.27;;;9.70;99.90;;;;;;5039453;28;20120;-74
2023/05/12 01:20:25;;;;;;;2.30;0.30;;;9.80;99.90;;;;;;5035431;28;20040;-76
2023/05/12 01:22:53;;;;;;;3.08;0.75;;;9.70;99.90;;;;;;5043316;28;20532;-74
2023/05/12 01:25:22;;;;;;;2.00;0.52;;;9.80;99.90;;;;;;5038193;28;20483;-75
2023/05/12 01:27:49;;;;;;;0.40;0.20;;;9.80;99.90;;;;;;5045670;28;20033;-74
2023/05/12 01:30:18;;;;;;;0.52;0.20;;;9.90;99.90;;;;;;5036525;28;20029;-75
2023/05/12 01:32:44;;;;;;;0.85;0.55;;;9.90;99.90;;;;;;5048540;28;20436;-74
2023/05/12 01:35:10;;;;;;;1.70;0.68;;;9.80;99.90;;;;;;5035108;28;20159;-75
2023/05/12 01:37:36;;;;;;;2.15;0.40;;;10.00;99.90;;;;;;5043760;28;20090;-75
2023/05/12 01:40:02;;;;;;;0.90;0.35;;;9.90;99.90;;;;;;5040109;28;20411;-74
2023/05/12 01:42:28;;;;;;;0.77;0.40;;;9.60;99.90;;;;;;5040210;28;20079;-75
2023/05/12 01:44:53;;;;;;;1.00;0.50;;;9.50;99.90;;;;;;5041668;28;20432;-74
2023/05/12 01:47:20;;;;;;;0.60;0.30;;;9.60;99.90;;;;;;5041598;28;20022;-76
2023/05/12 01:49:46;;;;;;;2.20;0.63;;;9.70;99.90;;;;;;5038167;28;20048;-75
2023/05/12 01:52:11;;;;;;;1.55;0.30;;;9.80;99.90;;;;;;5045715;28;20383;-75
2023/05/12 01:54:37;;;;;;;0.73;0.40;;;9.90;99.90;;;;;;5039864;28;20619;-75
2023/05/12 01:57:03;;;;;;;5.07;0.60;;;9.90;99.90;;;;;;5045149;28;20025;-75
2023/05/12 01:59:29;;;;;;;2.28;0.40;;;9.90;99.90;;;;;;5048451;28;20422;-75
2023/05/12 02:01:55;;;;;;;1.08;0.30;;;9.90;99.90;;;;;;5041831;28;20476;-75
2023/05/12 02:04:21;;;;;;;0.80;0.20;;;9.80;99.90;;;;;;5033934;28;20036;-74
2023/05/12 02:06:47;;;;;;;1.67;0.50;;;9.80;99.90;;;;;;5045490;28;20404;-74
2023/05/12 02:09:12;;;;;;;0.85;0.30;;;9.70;99.90;;;;;;5044179;28;20479;-76
2023/05/12 02:11:38;;;;;;;1.80;0.70;;;9.70;99.90;;;;;;5035005;28;22660;-74
2023/05/12 02:14:04;;;;;;;2.33;0.40;;;9.70;99.90;;;;;;5043763;28;20025;-75
2023/05/12 02:16:29;;;;;;;1.25;0.55;;;9.80;99.90;;;;;;5046408;28;20056;-75
2023/05/12 02:18:55;;;;;;;0.98;0.45;;;9.80;99.90;;;;;;5044243;28;20041;-74
2023/05/12 02:21:20;;;;;;;1.02;0.68;;;9.70;99.90;;;;;;5041767;28;20021;-75
2023/05/12 02:23:46;;;;;;;1.83;0.50;;;9.70;99.90;;;;;;5045896;28;20106;-75
2023/05/12 02:26:12;;;;;;;1.10;0.35;;;9.80;99.90;;;;;;5044472;28;20041;-75
2023/05/12 02:28:37;;;;;;;1.63;0.50;;;9.80;99.90;;;;;;5045612;28;20418;-76
2023/05/12 02:31:03;;;;;;;1.70;0.50;;;9.80;99.90;;;;;;5041437;28;20448;-74
2023/05/12 02:33:29;;;;;;;1.23;0.45;;;10.00;99.90;;;;;;5035126;28;20033;-74
2023/05/12 02:35:55;;;;;;;1.33;0.47;;;9.90;99.90;;;;;;5033234;28;20029;-75
2023/05/12 02:38:21;;;;;;;1.52;0.40;;;9.80;99.90;;;;;;5034964;28;20041;-75
2023/05/12 02:40:46;;;;;;;0.73;0.35;;;9.80;99.90;;;;;;5037470;28;20037;-74
2023/05/12 02:43:12;;;;;;;1.38;0.52;;;9.90;99.90;;;;;;5044256;28;20365;-75
2023/05/12 02:45:38;;;;;;;1.23;0.50;;;9.90;99.90;;;;;;5040804;28;20506;-75
2023/05/12 02:48:04;;;;;;;2.67;0.70;;;10.10;99.90;;;;;;5049473;28;20040;-75
2023/05/12 02:50:30;;;;;;;3.97;0.77;;;10.10;99.90;;;;;;5038959;28;20087;-74
2023/05/12 02:52:56;;;;;;;1.27;0.63;;;10.20;99.90;;;;;;5044479;28;20037;-74
2023/05/12 02:55:22;;;;;;;1.65;0.65;;;10.20;99.90;;;;;;5036646;28;20072;-75
2023/05/12 02:57:47;;;;;;;1.63;0.88;;;10.10;99.90;;;;;;5038218;28;20068;-76
2023/05/12 03:00:13;;;;;;;1.67;0.70;;;10.10;99.90;;;;;;5033681;28;20028;-73
2023/05/12 03:02:40;;;;;;;1.77;1.00;;;10.10;99.90;;;;;;5030431;28;20079;-74
2023/05/12 03:05:08;;;;;;;2.70;0.85;;;10.00;99.90;;;;;;5032258;28;20447;-74
2023/05/12 03:07:33;;;;;;;2.13;1.27;;;10.10;99.90;;;;;;5039375;28;20121;-74
2023/05/12 03:10:00;;;;;;;2.90;1.05;;;10.10;99.90;;;;;;5034173;28;20097;-74
2023/05/12 03:12:28;;;;;;;3.65;1.95;;;10.00;99.90;;;;;;5033313;28;20117;-74
2023/05/12 03:14:54;;;;;;;2.95;1.30;;;10.10;99.90;;;;;;5033727;28;20144;-74
2023/05/12 03:17:20;;;;;;;2.83;1.40;;;10.00;99.90;;;;;;5027213;28;20112;-75
2023/05/12 03:19:46;;;;;;;2.33;1.08;;;10.10;99.90;;;;;;5030757;28;20120;-74
2023/05/12 03:22:12;;;;;;;2.38;1.38;;;10.00;99.90;;;;;;5030116;28;20485;-74
2023/05/12 03:24:38;;;;;;;1.88;1.10;;;9.90;99.90;;;;;;5037565;28;20075;-73
2023/05/12 03:27:03;;;;;;;6.45;1.23;;;9.90;99.90;;;;;;5039948;28;20037;-74
2023/05/12 03:29:30;;;;;;;2.05;1.20;;;9.90;99.90;;;;;;5035588;28;20078;-74
2023/05/12 03:31:55;;;;;;;2.35;1.15;;;10.10;99.90;;;;;;5037815;28;20029;-74
2023/05/12 03:34:21;;;;;;;1.67;0.80;;;10.10;99.90;;;;;;5031200;28;20072;-74
2023/05/12 03:36:47;;;;;;;2.92;1.02;;;10.00;99.90;;;;;;5028924;28;20025;-74
2023/05/12 03:39:12;;;;;;;1.88;0.98;;;9.90;99.90;;;;;;5033749;28;20041;-74
2023/05/12 03:41:38;;;;;;;2.70;1.10;;;9.90;99.90;;;;;;5033414;28;20051;-74
2023/05/12 03:44:04;;;;;;;2.13;0.80;;;10.00;99.90;;;;;;5033007;28;20467;-74
2023/05/12 03:46:30;;;;;;;1.27;0.70;;;10.10;99.90;;;;;;5035850;28;20033;-74
2023/05/12 03:48:57;;;;;;;2.50;0.98;;;10.00;99.90;;;;;;5042182;28;20035;-74
2023/05/12 03:51:23;;;;;;;1.98;0.90;;;10.00;99.90;;;;;;5033153;28;20049;-74
2023/05/12 03:53:49;;;;;;;2.40;0.95;;;9.90;99.90;;;;;;5033789;28;20057;-75
2023/05/12 03:56:15;;;;;;;1.70;1.02;;;9.90;99.90;;;;;;5035548;28;20483;-74
2023/05/12 03:58:42;;;;;;;3.85;1.08;;;10.10;99.90;;;;;;5028599;28;20518;-75
2023/05/12 04:01:07;;;;;;;1.30;0.80;;;10.10;99.90;;;;;;5036802;28;20071;-74
2023/05/12 04:03:33;;;;;;;2.10;0.80;;;10.00;99.90;;;;;;5034987;28;20075;-74
2023/05/12 04:06:03;;;;;;;1.63;0.70;;;9.80;99.90;;;;;;5033199;28;20029;-74
2023/05/12 04:08:29;;;;;;;1.85;0.90;;;9.70;99.90;;;;;;5030638;28;20504;-74
2023/05/12 04:10:56;;;;;;;4.55;1.13;;;9.80;99.90;;;;;;5030937;28;20112;-74
2023/05/12 04:13:26;;;;;;;1.88;0.85;;;9.80;99.90;;;;;;5032827;28;20044;-74
2023/05/12 04:15:58;;;;;;;1.95;0.80;;;9.80;99.90;;;;;;5030100;28;20037;-73
2023/05/12 04:18:25;;;;;;;0.85;0.50;;;9.90;99.90;;;;;;5031652;28;20472;-74
2023/05/12 04:20:52;;;;;;;2.53;1.10;;;9.80;99.90;;;;;;5026898;28;20076;-74
2023/05/12 04:23:18;;;;;;;2.80;1.00;;;9.80;99.90;;;;;;5036259;28;20032;-74
2023/05/12 04:25:43;;;;;;;2.25;1.00;;;9.70;99.90;;;;;;5031511;28;20041;-74
2023/05/12 04:28:09;;;;;;;2.40;1.10;;;9.70;99.90;;;;;;5032823;28;20349;-74
2023/05/12 04:30:37;;;;;;;1.67;0.80;;;9.70;99.90;;;;;;5041562;28;20033;-74
2023/05/12 04:33:03;;;;;;;1.95;0.95;;;9.80;99.90;;;;;;5028164;28;20116;-74
2023/05/12 04:35:29;;;;;;;1.63;0.85;;;9.90;99.90;;;;;;5031867;28;20112;-74
2023/05/12 04:37:54;;;;;;;3.60;1.60;;;10.00;99.90;;;;;;5039149;28;20132;-73
2023/05/12 04:40:20;;;;;;;3.08;1.20;;;10.00;99.90;;;;;;5033844;28;20064;-74
2023/05/12 04:42:46;;;;;;;2.38;0.90;;;10.10;99.90;;;;;;5026644;28;20633;-74
2023/05/12 04:45:11;;;;;;;3.63;1.00;;;10.00;99.90;;;;;;5028006;28;20053;-75
2023/05/12 04:47:37;;;;;;;1.90;0.95;;;10.00;99.90;;;;;;5025627;28;20578;-74
2023/05/12 04:50:03;;;;;;;2.15;0.80;;;9.90;99.90;;;;;;5023047;28;20083;-74
2023/05/12 04:52:29;;;;;;;1.30;0.80;;;9.90;99.90;;;;;;5028502;28;20037;-74
2023/05/12 04:54:55;;;;;;;3.03;0.85;;;9.80;99.90;;;;;;5038443;28;20021;-74
2023/05/12 04:57:20;;;;;;;2.72;1.00;;;9.80;99.90;;;;;;5038067;28;20029;-74
2023/05/12 04:59:46;;;;;;;0.98;0.60;;;9.80;99.90;;;;;;5044904;28;20032;-74
2023/05/12 05:02:12;;;;;;;2.47;0.85;;;9.70;99.90;;;;;;5038644;28;20063;-74
2023/05/12 05:04:37;;;;;;;2.05;0.60;;;9.90;99.90;;;;;;5036168;28;20021;-74
2023/05/12 05:07:03;;;;;;;3.33;1.13;;;9.90;99.90;;;;;;5044253;28;20045;-74
2023/05/12 05:09:29;;;;;;;2.30;0.80;;;9.90;99.90;;;;;;5040972;28;20041;-73
2023/05/12 05:11:55;;;;;;;3.67;1.10;;;9.90;99.90;;;;;;5035408;28;20040;-72
2023/05/12 05:14:21;;;;;;;1.90;1.00;;;9.90;99.90;;;;;;5039590;28;20108;-76
2023/05/12 05:16:47;;;;;;;2.55;1.00;;;10.10;99.90;;;;;;5033054;28;20052;-75
2023/05/12 05:19:13;;;;;;;2.38;0.85;;;10.10;99.90;;;;;;5031689;28;20086;-76
2023/05/12 05:21:39;;;;;;;1.90;0.98;;;10.30;99.90;;;;;;5028391;28;20087;-76
2023/05/12 05:24:05;;;;;;;2.40;0.88;;;10.30;99.90;;;;;;5036651;28;20954;-76
2023/05/12 05:26:31;;;;;;;1.77;0.68;;;10.30;99.90;;;;;;5037275;28;20029;-74
2023/05/12 05:28:56;;;;;;;3.42;0.90;;;10.40;99.90;;;;;;5034374;28;20032;-74
2023/05/12 05:31:22;;;;;;;1.38;0.90;;;10.50;99.90;;;;;;5036271;28;20108;-74
2023/05/12 05:33:48;;;;;;;0.95;0.65;;;10.60;99.90;;;;;;5042136;28;20037;-75
2023/05/12 05:36:14;;;;;;;0.70;0.30;;;10.60;99.90;;;;;;5037707;28;20459;-74
2023/05/12 05:38:39;;;;;;;1.63;0.63;;;10.70;99.90;;;;;;5036451;28;20064;-74
2023/05/12 05:41:05;;;;;;;1.60;0.70;;;10.70;99.90;;;;;;5035557;28;20127;-75
2023/05/12 05:43:31;;;;;;;1.42;0.70;;;10.70;99.90;;;;;;5036569;28;20026;-76
2023/05/12 05:45:57;;;;;;;1.23;0.60;;;10.80;99.90;;;;;;5038035;28;20083;-76
2023/05/12 05:48:23;;;;;;;1.30;0.57;;;10.80;99.90;;;;;;5034281;28;20057;-76
2023/05/12 05:50:51;;;;;;;1.25;0.57;;;10.80;99.90;;;;;;5036758;28;20461;-76
2023/05/12 05:53:17;;;;;;;0.77;0.30;;;10.90;99.90;;;;;;5033023;28;20060;-76
2023/05/12 05:55:44;;;;;;;1.05;0.50;;;10.80;99.90;;;;;;5031224;28;20064;-76
2023/05/12 05:58:10;;;;;;;0.85;0.40;;;10.80;99.90;;;;;;5038983;28;20037;-75
2023/05/12 06:00:36;;;;;;;1.70;0.60;;;10.90;99.90;;;;;;5036533;28;20098;-75
2023/05/12 06:03:02;;;;;;;1.45;0.70;;;10.90;99.90;;;;;;5032479;28;20484;-74
2023/05/12 06:05:28;;;;;;;0.73;0.38;;;10.90;99.90;;;;;;5038671;28;20038;-76
2023/05/12 06:07:54;;;;;;;1.33;0.65;;;11.00;99.90;;;;;;5035666;28;20033;-75
2023/05/12 06:10:19;;;;;;;3.92;1.67;;;11.00;99.90;;;;;;5038100;28;20032;-76
2023/05/12 06:12:45;;;;;;;6.28;2.30;;;11.00;99.90;;;;;;5039506;28;20363;-76
2023/05/12 06:15:11;;;;;;;5.40;2.03;;;11.20;99.90;;;;;;5028713;28;20029;-76
2023/05/12 06:17:37;;;;;;;3.25;1.58;;;11.10;99.90;;;;;;5036865;28;20029;-76
2023/05/12 06:20:04;;;;;;;2.35;1.17;;;11.10;99.90;;;;;;5040040;28;20032;-75
2023/05/12 06:22:30;;;;;;;1.13;0.60;;;11.20;99.90;;;;;;5028446;28;20395;-75
2023/05/12 06:24:55;;;;;;;1.75;0.68;;;11.20;99.90;;;;;;5036467;28;20033;-75
2023/05/12 06:27:21;;;;;;;2.92;0.80;;;11.30;99.90;;;;;;5030602;28;20061;-75
2023/05/12 06:29:47;;;;;;;3.28;0.65;;;11.30;99.90;;;;;;5037384;28;20123;-76
2023/05/12 06:32:13;;;;;;;2.50;0.50;;;11.30;99.90;;;;;;5031845;28;20038;-76
2023/05/12 06:34:40;;;;;;;0.95;0.43;;;11.40;99.90;;;;;;5040469;28;20040;-76
2023/05/12 06:37:06;;;;;;;2.90;0.65;;;11.30;99.90;;;;;;5034795;28;20603;-76
2023/05/12 06:39:31;;;;;;;3.42;1.17;;;11.40;99.90;;;;;;5033683;28;20052;-76
2023/05/12 06:41:57;;;;;;;1.45;0.57;;;11.40;99.90;;;;;;5041325;28;20459;-76
2023/05/12 06:44:23;;;;;;;3.08;0.75;;;11.40;99.90;;;;;;5037024;28;20025;-76
2023/05/12 06:46:48;;;;;;;1.27;0.50;;;11.40;99.90;;;;;;5035882;28;20048;-76
2023/05/12 06:49:14;;;;;;;1.63;0.60;;;11.50;99.90;;;;;;5039903;28;20162;-76
2023/05/12 06:51:40;;;;;;;1.85;0.57;;;11.60;99.90;;;;;;5039915;28;20029;-76
2023/05/12 06:54:06;;;;;;;1.88;1.00;;;11.60;99.90;;;;;;5035683;28;20368;-76
2023/05/12 06:56:31;;;;;;;2.40;1.42;;;11.80;99.90;;;;;;5037397;28;20025;-77
2023/05/12 06:59:01;;;;;;;3.13;1.20;;;11.60;99.90;;;;;;5029268;28;20025;-78
2023/05/12 07:01:28;;;;;;;3.90;1.75;;;11.70;99.90;;;;;;5029635;28;20052;-76
2023/05/12 07:03:54;;;;;;;1.85;0.90;;;11.60;99.90;;;;;;5028497;28;20080;-77
2023/05/12 07:06:20;;;;;;;2.00;0.90;;;11.50;99.90;;;;;;5033784;28;20040;-76
2023/05/12 07:08:46;;;;;;;1.98;0.98;;;11.50;99.90;;;;;;5024988;28;20033;-76
2023/05/12 07:11:18;;;;;;;3.45;1.05;;;11.50;99.90;;;;;;5026310;28;20033;-78
2023/05/12 07:13:46;;;;;;;3.85;0.75;;;11.60;99.90;;;;;;5042217;28;20043;-77
2023/05/12 07:16:13;;;;;;;1.88;1.10;;;11.80;99.90;;;;;;5033949;28;20020;-78
2023/05/12 07:18:39;;;;;;;2.28;1.10;;;11.80;99.90;;;;;;5028711;28;20542;-78
2023/05/12 07:21:05;;;;;;;3.65;1.10;;;12.00;99.90;;;;;;5036214;28;20037;-77
2023/05/12 07:23:31;;;;;;;3.05;1.10;;;13.10;99.90;;;;;;5032486;28;20095;-77
2023/05/12 07:25:56;;;;;;;3.03;1.42;;;13.10;99.90;;;;;;5026619;28;20728;-78
2023/05/12 07:28:22;;;;;;;3.38;1.33;;;12.90;99.90;;;;;;5034153;28;20547;-78
2023/05/12 07:30:48;;;;;;;3.58;1.40;;;12.90;99.90;;;;;;5042228;28;20108;-78
2023/05/12 07:33:14;;;;;;;2.13;1.20;;;12.80;99.90;;;;;;5027898;28;20064;-78
2023/05/12 07:35:39;;;;;;;5.35;1.60;;;12.90;99.90;;;;;;5026759;28;20060;-77
2023/05/12 07:38:05;;;;;;;3.67;1.80;;;12.80;99.90;;;;;;5031147;28;20629;-78
2023/05/12 07:40:31;;;;;;;3.33;2.05;;;12.80;99.90;;;;;;5039672;28;20407;-78
2023/05/12 07:42:56;;;;;;;4.00;1.92;;;13.00;99.90;;;;;;5040145;28;20041;-77
2023/05/12 07:45:23;;;;;;;3.28;1.60;;;13.10;99.90;;;;;;5029622;28;20037;-78
2023/05/12 07:47:50;;;;;;;5.30;1.30;;;13.20;99.90;;;;;;5036359;28;20071;-78
2023/05/12 07:50:17;;;;;;;1.70;0.70;;;13.10;99.90;;;;;;5033897;28;20025;-78
2023/05/12 07:52:49;;;;;;;1.35;0.70;;;13.00;99.90;;;;;;5032868;28;20123;-78
2023/05/12 07:55:16;;;;;;;4.45;1.35;;;13.10;99.90;;;;;;5029437;28;20036;-78
2023/05/12 07:57:42;;;;;;;3.00;1.17;;;13.20;99.90;;;;;;5033098;28;20108;-78
2023/05/12 08:00:10;;;;;;;3.47;1.92;;;13.20;99.90;;;;;;5041201;28;20154;-78
2023/05/12 08:02:39;;;;;;;4.15;1.90;;;13.20;99.90;;;;;;5031762;28;20029;-78
2023/05/12 08:05:08;;;;;;;5.40;1.67;;;13.20;99.90;;;;;;5035476;28;20068;-78
2023/05/12 08:07:34;;;;;;;3.47;1.10;;;13.20;99.90;;;;;;5025207;28;20025;-78
2023/05/12 08:10:01;;;;;;;2.25;1.20;;;13.30;99.90;;;;;;5024773;28;20468;-78
2023/05/12 08:12:26;;;;;;;2.15;1.00;;;13.40;99.90;;;;;;5031946;28;20090;-77
2023/05/12 08:14:52;;;;;;;2.88;1.00;;;13.50;99.90;;;;;;5029739;28;20037;-78
2023/05/12 08:17:18;;;;;;;2.50;1.42;;;13.50;99.90;;;;;;5035235;28;20066;-77
2023/05/12 08:19:43;;;;;;;3.90;1.60;;;13.50;99.90;;;;;;5033646;28;20032;-78
2023/05/12 08:22:09;;;;;;;2.75;1.20;;;13.70;99.90;;;;;;5036012;28;20032;-77
2023/05/12 08:24:34;;;;;;;2.38;0.73;;;13.80;99.90;;;;;;5035828;28;20025;-78
2023/05/12 08:27:00;;;;;;;1.48;0.63;;;13.80;99.90;;;;;;5036072;28;20079;-78
2023/05/12 08:29:26;;;;;;;3.45;0.52;;;13.70;99.90;;;;;;5030837;28;20078;-77
2023/05/12 08:31:51;;;;;;;0.68;0.32;;;13.90;99.90;;;;;;5036974;28;20026;-78
2023/05/12 08:34:17;;;;;;;2.47;0.70;;;14.00;99.90;;;;;;5036797;28;20616;-78
2023/05/12 08:36:43;;;;;;;2.67;0.80;;;13.90;99.90;;;;;;5035779;28;20043;-78
2023/05/12 08:39:11;;;;;;;1.42;0.55;;;13.90;99.90;;;;;;5036365;28;20053;-78
2023/05/12 08:41:47;;;;;;;1.65;0.80;;;14.10;99.90;;;;;;5035614;28;20087;-78
2023/05/12 08:44:13;;;;;;;1.30;0.82;;;14.10;99.90;;;;;;5036873;28;20032;-78
2023/05/12 08:46:40;;;;;;;4.22;0.98;;;14.20;99.90;;;;;;5035291;28;20107;-77
2023/05/12 08:49:11;;;;;;;1.25;0.57;;;14.10;99.90;;;;;;5031980;28;20124;-78
2023/05/12 08:51:39;;;;;;;2.25;0.95;;;14.00;99.90;;;;;;5031444;28;20523;-78
2023/05/12 08:54:07;;;;;;;3.65;1.08;;;14.00;99.90;;;;;;5025920;28;20067;-77
2023/05/12 08:56:33;;;;;;;1.98;1.00;;;13.90;99.90;;;;;;5034269;28;20107;-78
2023/05/12 08:59:01;;;;;;;2.20;0.93;;;13.80;99.90;;;;;;5031197;28;20154;-77
2023/05/12 09:01:28;;;;;;;1.83;0.90;;;13.70;99.90;;;;;;5027533;28;20091;-77
2023/05/12 09:03:54;;;;;;;2.72;1.65;;;13.60;99.90;;;;;;5031883;28;20402;-78
2023/05/12 09:06:19;;;;;;;2.28;1.15;;;13.50;99.90;;;;;;5029590;28;20037;-77
2023/05/12 09:08:45;;;;;;;2.63;1.35;;;13.50;99.90;;;;;;5035309;28;20037;-77
2023/05/12 09:11:12;;;;;;;3.08;1.75;;;13.50;99.90;;;;;;5025762;28;20033;-77
2023/05/12 09:13:46;;;;;;;2.30;0.98;;;13.40;99.90;;;;;;5035090;28;20448;-77
2023/05/12 09:16:13;;;;;;;2.40;1.10;;;13.50;99.90;;;;;;5036355;28;20460;-77
2023/05/12 09:18:53;;;;;;;2.45;1.13;;;13.60;99.90;;;;;;5034082;28;20112;-77
2023/05/12 09:21:20;;;;;;;3.58;1.60;;;13.50;99.90;;;;;;5028717;28;20554;-77
2023/05/12 09:23:55;;;;;;;3.05;1.50;;;13.60;99.90;;;;;;5032703;28;20407;-77
2023/05/12 09:26:22;;;;;;;2.40;1.23;;;13.70;99.90;;;;;;5030649;28;20045;-77
2023/05/12 09:28:48;;;;;;;6.20;1.75;;;13.70;99.90;;;;;;5025768;28;20048;-76
2023/05/12 09:31:18;;;;;;;1.60;0.95;;;13.90;99.90;;;;;;5040724;28;20025;-77
2023/05/12 09:33:44;;;;;;;2.45;1.27;;;13.90;99.90;;;;;;5035748;28;20029;-77
2023/05/12 09:36:11;;;;;;;4.00;1.40;;;14.00;99.90;;;;;;5037331;28;20516;-77
2023/05/12 09:38:36;;;;;;;2.95;1.42;;;14.10;99.90;;;;;;5043686;28;20052;-77
2023/05/12 09:41:02;;;;;;;2.83;1.40;;;14.20;99.90;;;;;;5039366;28;20029;-76
2023/05/12 09:43:28;;;;;;;3.50;1.58;;;14.30;99.90;;;;;;5041469;28;20040;-76
2023/05/12 09:45:54;;;;;;;2.80;1.48;;;14.40;99.90;;;;;;5044197;28;20040;-77
2023/05/12 09:48:20;;;;;;;3.60;1.75;;;14.40;99.90;;;;;;5037694;28;20061;-77
2023/05/12 09:50:51;;;;;;;4.70;1.98;;;14.40;99.90;;;;;;5039914;28;20029;-76
2023/05/12 09:53:18;;;;;;;4.07;1.85;;;14.40;99.90;;;;;;5039061;28;20490;-76
2023/05/12 09:55:45;;;;;;;3.80;1.80;;;14.20;99.90;;;;;;5025687;28;20029;-77
2023/05/12 09:58:14;;;;;;;4.03;2.00;;;14.30;99.90;;;;;;5039966;28;20121;-77
2023/05/12 10:00:40;;;;;;;2.90;1.60;;;14.30;99.90;;;;;;5039151;28;20561;-77
2023/05/12 10:03:29;;;;;;;3.58;1.75;;;14.30;99.90;;;;;;5031627;28;20025;-76
2023/05/12 10:06:00;;;;;;;3.72;0.95;;;14.40;99.90;;;;;;5039741;28;20037;-77
2023/05/12 10:08:46;;;;;;;4.90;1.00;;;14.60;99.90;;;;;;5031077;28;20080;-77
2023/05/12 10:11:13;;;;;;;0.47;0.30;;;14.70;99.90;;;;;;5038463;28;20025;-76
2023/05/12 10:13:39;;;;;;;6.10;2.70;;;14.50;99.90;;;;;;5035252;28;20033;-77
2023/05/12 10:16:06;;;;;;;2.13;0.98;;;14.70;99.90;;;;;;5036856;28;20029;-77
2023/05/12 10:18:33;;;;;;;1.00;0.47;;;14.80;99.90;;;;;;5026218;28;20034;-77
2023/05/12 10:21:00;;;;;;;1.60;0.70;;;14.70;99.90;;;;;;5034003;28;20065;-77
2023/05/12 10:23:26;;;;;;;1.10;0.45;;;14.90;99.90;;;;;;5026698;28;20051;-77
2023/05/12 10:25:57;;;;;;;0.28;0.13;;;14.90;99.90;;;;;;5031671;28;20041;-77
2023/05/12 10:28:23;;;;;;;0.30;0.20;;;14.60;99.90;;;;;;5032949;28;20025;-77
2023/05/12 10:30:51;;;;;;;1.15;0.35;;;14.80;99.90;;;;;;5031575;28;20116;-76
2023/05/12 10:33:17;;;;;;;2.40;0.77;;;14.70;99.90;;;;;;5029527;28;20021;-77
2023/05/12 10:35:44;;;;;;;0.82;0.10;;;14.90;99.90;;;;;;5035158;28;20667;-77
2023/05/12 10:38:11;;;;;;;0.77;0.20;;;14.70;99.90;;;;;;5024993;28;20521;-76
2023/05/12 10:41:01;;;;;;;1.95;0.20;;;14.90;99.90;;;;;;5030620;28;20099;-76
2023/05/12 10:43:42;;;;;;;0.73;0.30;;;15.00;99.90;;;;;;5037101;28;20024;-77
2023/05/12 10:46:09;;;;;;;2.53;0.30;;;14.90;99.90;;;;;;5039396;28;20103;-76
2023/05/12 10:48:37;;;;;;;0.77;0.30;;;14.80;99.90;;;;;;5041138;28;20017;-77
2023/05/12 10:51:10;;;;;;;1.30;0.30;;;15.00;99.90;;;;;;5034770;28;20596;-76
2023/05/12 10:53:38;;;;;;;2.20;0.70;;;15.20;99.90;;;;;;5032947;28;20030;-77
2023/05/12 10:56:05;;;;;;;1.70;0.55;;;15.50;99.90;;;;;;5040172;28;20029;-77
2023/05/12 10:58:31;;;;;;;0.57;0.20;;;15.40;99.90;;;;;;5027182;28;20028;-77
2023/05/12 11:01:04;;;;;;;0.35;0.20;;;15.40;99.90;;;;;;5032807;28;20131;-77
2023/05/12 11:03:32;;;;;;;5.30;2.40;;;15.40;99.90;;;;;;5041145;28;20186;-77
2023/05/12 11:06:03;;;;;;;3.85;1.75;;;15.50;99.90;;;;;;5038570;28;20030;-77
2023/05/12 11:08:30;;;;;;;0.90;0.47;;;15.60;99.90;;;;;;5037031;28;20044;-78
2023/05/12 11:10:56;;;;;;;0.50;0.10;;;15.40;99.90;;;;;;5038425;28;20033;-77
2023/05/12 11:13:22;;;;;;;0.40;0.30;;;15.40;99.90;;;;;;5044919;28;20033;-77
2023/05/12 11:15:49;;;;;;;0.20;0.10;;;15.50;99.90;;;;;;5034116;28;20022;-77
2023/05/12 11:18:22;;;;;;;0.20;0.20;;;15.60;99.90;;;;;;5028540;28;20029;-77
2023/05/12 11:20:48;;;;;;;0.68;0.10;;;15.80;99.90;;;;;;5038999;28;20111;-77
2023/05/12 11:23:30;;;;;;;0.35;0.10;;;15.90;99.90;;;;;;5034005;28;20029;-78
2023/05/12 11:25:56;;;;;;;0.00;0.00;;;16.00;99.90;;;;;;5027408;28;20098;-78
2023/05/12 11:28:22;;;;;;;0.20;0.10;;;16.00;99.90;;;;;;5040435;28;20033;-82
2023/05/12 11:30:52;;;;;;;1.27;0.13;;;16.00;99.90;;;;;;5048154;28;20033;-78
2023/05/12 11:33:21;;;;;;;0.50;0.20;;;16.00;99.90;;;;;;5046135;28;20067;-78
2023/05/12 11:35:48;;;;;;;1.85;1.00;;;16.40;99.90;;;;;;5025527;28;20082;-77
2023/05/12 11:38:18;;;;;;;0.88;0.30;;;16.70;99.90;;;;;;5025470;28;20048;-77
2023/05/12 11:40:44;;;;;;;3.00;1.75;;;16.70;99.90;;;;;;5025494;28;20037;-78
2023/05/12 11:43:10;;;;;;;4.72;2.58;;;16.70;99.90;;;;;;5035261;28;20013;-79
2023/05/12 11:45:36;;;;;;;3.72;2.05;;;16.80;99.90;;;;;;5039578;28;20064;-78
2023/05/12 11:48:12;;;;;;;2.17;0.70;;;16.90;99.90;;;;;;5042080;28;20600;-78
2023/05/12 11:50:40;;;;;;;3.25;1.92;;;16.50;99.90;;;;;;5044413;28;20027;-78
2023/05/12 11:53:17;;;;;;;3.90;0.95;;;16.50;99.90;;;;;;5044564;28;20059;-78
2023/05/12 11:55:50;;;;;;;11.38;7.32;;;16.40;99.90;;;;;;5044779;28;20425;-78
2023/05/12 11:58:29;;;;;;;9.20;4.40;;;16.30;99.90;;;;;;5044419;28;20029;-78
2023/05/12 12:00:56;;;;;;;9.40;5.57;;;16.20;99.90;;;;;;5044437;28;20455;-78
2023/05/12 12:03:22;;;;;;;6.15;3.33;;;16.30;99.90;;;;;;5044817;28;20155;-78
2023/05/12 12:06:02;;;;;;;2.38;1.15;;;16.60;99.90;;;;;;5044737;28;20057;-78
2023/05/12 12:08:28;;;;;;;5.65;5.13;;;16.80;99.90;;;;;;5044603;28;20064;-79
2023/05/12 12:10:54;;;;;;;2.75;1.05;;;16.50;99.90;;;;;;5044544;28;20059;-79
2023/05/12 12:13:24;;;;;;;3.67;1.75;;;16.50;99.90;;;;;;5025267;28;20079;-78
2023/05/12 12:15:50;;;;;;;3.30;1.20;;;16.40;99.90;;;;;;5024843;28;20032;-77
2023/05/12 12:18:15;;;;;;;2.20;1.13;;;16.60;99.90;;;;;;5035159;28;20029;-78
2023/05/12 12:20:46;;;;;;;1.45;0.70;;;16.40;99.90;;;;;;5044317;28;20112;-78
2023/05/12 12:23:11;;;;;;;0.40;0.20;;;16.50;99.90;;;;;;5042755;28;20036;-77
2023/05/12 12:25:37;;;;;;;1.67;0.20;;;16.50;99.90;;;;;;5024340;28;20037;-77
2023/05/12 12:28:03;;;;;;;0.20;0.10;;;16.40;99.90;;;;;;5027935;28;20037;-78
2023/05/12 12:30:29;;;;;;;0.93;0.35;;;16.50;99.90;;;;;;5030779;28;20099;-79
2023/05/12 12:32:55;;;;;;;0.57;0.30;;;16.60;99.90;;;;;;5037836;28;20033;-77
2023/05/12 12:35:20;;;;;;;0.55;0.20;;;16.40;99.90;;;;;;5031500;28;20407;-78
2023/05/12 12:37:52;;;;;;;0.13;0.10;;;16.30;99.90;;;;;;5030315;28;20379;-78
2023/05/12 12:40:19;;;;;;;1.42;0.80;;;16.20;99.90;;;;;;5027129;28;20091;-78
2023/05/12 12:42:45;;;;;;;0.52;0.35;;;16.20;99.90;;;;;;5032320;28;20030;-78
2023/05/12 12:45:11;;;;;;;1.25;0.60;;;16.20;99.90;;;;;;5032239;28;20037;-78
2023/05/12 12:47:37;;;;;;;0.75;0.10;;;16.10;99.90;;;;;;5023063;28;20045;-78
2023/05/12 12:50:04;;;;;;;2.60;0.40;;;16.00;99.90;;;;;;5040498;28;20079;-78